Time;durP1;ratioP1;P1;durP2;ratioP2;P2;SDS_P1;SDS_P2;PMS_P1;PMS_P2;Temp;Humidity;BMP_temperature;BMP_pressure;BME280_temperature;BME280_humidity;BME280_pressure;Samples;Min_cycle;Max_cycle;Signal;HPM_P1;HPM_P2
2020/12/20 00:00:19;;;;;;;35.31;15.26;;;;;;;5.19;74.13;100592.02;350050;113;1961997;-74
2020/12/20 00:01:25;;;;;;;34.78;13.97;;;;;;;5.16;74.29;100590.47;314587;113;2599927;-73
2020/12/20 00:02:30;;;;;;;30.21;13.56;;;;;;;5.16;74.29;100586.92;326216;113;1961947;-73
2020/12/20 00:03:46;;;;;;;32.45;13.53;;;;;;;5.17;74.24;100588.63;339439;113;1962068;-74
2020/12/20 00:04:51;;;;;;;32.47;13.80;;;;;;;5.18;74.27;100595.66;365054;111;1962003;-74
2020/12/20 00:05:58;;;;;;;30.26;12.72;;;;;;;5.17;74.28;100589.47;364732;111;1961967;-73
2020/12/20 00:07:07;;;;;;;29.84;14.50;;;;;;;5.20;74.26;100596.36;316647;111;2755938;-73
2020/12/20 00:08:13;;;;;;;29.29;13.83;;;;;;;5.21;74.25;100593.55;371157;108;1962037;-74
2020/12/20 00:09:21;;;;;;;28.43;13.82;;;;;;;5.19;74.09;100597.37;314774;109;2817868;-73
2020/12/20 00:10:29;;;;;;;30.07;13.29;;;;;;;5.19;74.36;100598.20;330683;107;2623949;-73
2020/12/20 00:11:39;;;;;;;34.08;14.38;;;;;;;5.20;74.18;100599.05;348848;106;1961899;-73
2020/12/20 00:12:45;;;;;;;33.86;14.62;;;;;;;5.22;74.27;100599.74;343087;108;1964018;-74
2020/12/20 00:13:50;;;;;;;28.41;13.11;;;;;;;5.25;74.22;100604.80;372611;108;1962928;-73
2020/12/20 00:14:56;;;;;;;33.02;12.12;;;;;;;5.26;73.90;100601.12;374235;108;1962001;-73
2020/12/20 00:16:02;;;;;;;30.80;13.56;;;;;;;5.17;73.91;100597.50;374443;108;1961943;-73
2020/12/20 00:17:10;;;;;;;31.86;13.86;;;;;;;5.16;74.20;100605.67;374078;108;1961946;-73
2020/12/20 00:18:15;;;;;;;30.08;13.02;;;;;;;5.17;74.31;100602.02;375875;108;1962064;-73
2020/12/20 00:19:20;;;;;;;33.14;14.49;;;;;;;5.16;74.34;100598.51;375099;106;1960898;-73
2020/12/20 00:20:29;;;;;;;30.21;12.86;;;;;;;5.17;74.36;100600.19;375223;108;1960827;-73
2020/12/20 00:21:34;;;;;;;34.17;13.64;;;;;;;5.18;74.36;100603.70;367478;108;1960853;-72
2020/12/20 00:22:40;;;;;;;27.43;11.46;;;;;;;5.18;74.23;100606.37;375248;108;1960829;-73
2020/12/20 00:23:45;;;;;;;26.86;12.79;;;;;;;5.19;74.13;100608.08;374683;108;1960902;-73
2020/12/20 00:24:51;;;;;;;26.31;12.68;;;;;;;5.17;74.12;100604.70;375877;108;1961928;-74
2020/12/20 00:25:57;;;;;;;28.01;14.08;;;;;;;5.17;74.33;100605.53;371995;108;1960824;-74
2020/12/20 00:27:05;;;;;;;26.06;12.71;;;;;;;5.20;74.32;100607.91;372900;107;1963942;-73
2020/12/20 00:28:10;;;;;;;28.43;13.79;;;;;;;5.20;74.27;100607.91;373601;107;1963985;-73
2020/12/20 00:29:15;;;;;;;29.89;13.55;;;;;;;5.22;74.08;100603.27;372805;106;1963029;-73
2020/12/20 00:30:22;;;;;;;30.61;13.09;;;;;;;5.19;74.21;100603.56;373709;108;1962936;-73
2020/12/20 00:31:28;;;;;;;34.74;14.34;;;;;;;5.22;74.25;100602.42;305092;108;2224282;-74
2020/12/20 00:32:35;;;;;;;29.01;12.76;;;;;;;5.24;74.26;100600.45;357393;107;1961948;-73
2020/12/20 00:33:40;;;;;;;30.75;12.14;;;;;;;5.27;74.16;100602.83;373236;108;1961975;-70
2020/12/20 00:34:46;;;;;;;30.99;14.17;;;;;;;5.28;74.12;100599.14;374053;108;1963020;-73
2020/12/20 00:35:51;;;;;;;29.80;13.51;;;;;;;5.18;73.99;100585.78;373980;106;1961940;-73
2020/12/20 00:36:57;;;;;;;28.33;13.22;;;;;;;5.29;74.03;100600.81;373304;106;1964092;-72
2020/12/20 00:38:03;;;;;;;32.78;13.11;;;;;;;5.30;74.15;100599.84;334120;108;2627913;-72
2020/12/20 00:39:08;;;;;;;30.94;13.70;;;;;;;5.33;74.12;100594.18;341417;108;1963019;-75
2020/12/20 00:40:15;;;;;;;28.15;13.27;;;;;;;5.37;73.93;100594.72;374014;108;1962012;-72
2020/12/20 00:41:20;;;;;;;32.23;14.40;;;;;;;5.36;73.70;100599.23;373461;108;1961999;-74
2020/12/20 00:42:27;;;;;;;29.35;14.45;;;;;;;5.37;73.86;100590.23;373765;108;1960918;-73
2020/12/20 00:43:33;;;;;;;27.47;12.38;;;;;;;5.36;73.59;100587.68;325322;108;2800995;-72
2020/12/20 00:44:39;;;;;;;29.78;12.77;;;;;;;5.35;73.75;100597.56;373735;106;1962014;-73
2020/12/20 00:45:50;;;;;;;27.59;13.33;;;;;;;5.36;73.80;100593.88;373046;106;1961745;-72
2020/12/20 00:46:57;;;;;;;28.36;14.16;;;;;;;5.38;73.93;100593.74;375197;106;1962053;-73
2020/12/20 00:48:03;;;;;;;30.34;13.66;;;;;;;5.38;73.67;100588.38;322269;108;2858001;-72
2020/12/20 00:49:08;;;;;;;33.29;13.34;;;;;;;5.40;73.48;100586.37;344188;108;1961962;-74
2020/12/20 00:50:14;;;;;;;29.03;13.63;;;;;;;5.43;73.67;100596.82;373237;108;1963049;-72
2020/12/20 00:51:20;;;;;;;27.79;13.48;;;;;;;5.44;73.49;100590.45;372582;108;1964937;-73
2020/12/20 00:52:26;;;;;;;31.79;12.86;;;;;;;5.47;73.45;100584.79;374457;106;1961979;-73
2020/12/20 00:53:35;;;;;;;29.08;12.47;;;;;;;5.49;73.45;100585.48;373824;106;1961938;-74
2020/12/20 00:54:41;;;;;;;28.27;13.32;;;;;;;5.51;73.43;100578.16;374604;108;1961921;-73
2020/12/20 00:55:48;;;;;;;28.57;13.07;;;;;;;5.51;73.12;100589.70;302750;108;2237267;-73
2020/12/20 00:56:54;;;;;;;25.98;13.61;;;;;;;5.53;73.18;100589.56;368992;109;1964012;-72
2020/12/20 00:57:59;;;;;;;29.16;13.56;;;;;;;5.57;73.32;100584.73;369283;107;1963033;-73
2020/12/20 00:59:04;;;;;;;33.24;12.74;;;;;;;5.59;73.08;100588.95;362585;109;1961967;-74
2020/12/20 01:00:12;;;;;;;31.33;13.27;;;;;;;5.60;72.84;100582.59;317204;109;2856927;-74
2020/12/20 01:01:17;;;;;;;27.95;13.04;;;;;;;5.57;72.54;100584.73;334478;111;1962005;-73
2020/12/20 01:02:23;;;;;;;29.27;13.08;;;;;;;5.58;72.90;100586.41;368525;107;1961936;-73
2020/12/20 01:03:29;;;;;;;31.78;14.60;;;;;;;5.62;73.02;100593.17;372912;106;1962939;-73
2020/12/20 01:04:34;;;;;;;29.74;14.41;;;;;;;5.63;72.58;100584.12;373626;107;1962040;-73
2020/12/20 01:05:39;;;;;;;28.14;14.35;;;;;;;5.63;72.63;100595.69;373172;108;1962997;-73
2020/12/20 01:06:46;;;;;;;38.64;14.58;;;;;;;5.64;72.66;100586.67;376552;106;1964053;-73
2020/12/20 01:07:56;;;;;;;32.17;13.63;;;;;;;5.63;72.48;100593.00;376605;107;1962044;-74
2020/12/20 01:09:03;;;;;;;30.91;13.03;;;;;;;5.61;72.43;100588.78;342834;107;2462918;-73
2020/12/20 01:10:09;;;;;;;28.01;12.78;;;;;;;5.60;72.74;100587.95;366588;108;1961961;-73
2020/12/20 01:11:17;;;;;;;32.08;13.08;;;;;;;5.62;72.43;100590.49;373136;106;1964937;-73
2020/12/20 01:12:22;;;;;;;29.86;13.46;;;;;;;5.61;72.57;100592.34;361263;107;1961985;-73
2020/12/20 01:13:43;;;;;;;30.42;13.33;;;;;;;5.61;72.48;100592.34;340818;106;1961971;-74
2020/12/20 01:14:49;;;;;;;34.32;14.36;;;;;;;5.56;72.37;100597.30;373652;108;1962008;-73
2020/12/20 01:15:54;;;;;;;29.38;13.78;;;;;;;5.49;72.45;100602.41;371325;107;1961928;-73
2020/12/20 01:17:04;;;;;;;29.46;14.02;;;;;;;5.46;72.55;100594.67;375195;107;1962049;-73
2020/12/20 01:18:11;;;;;;;27.14;12.48;;;;;;;5.43;72.79;100599.50;318649;107;2124517;-72
2020/12/20 01:19:17;;;;;;;36.06;14.83;;;;;;;5.43;72.84;100594.14;347545;107;1963980;-73
2020/12/20 01:20:24;;;;;;;26.83;13.52;;;;;;;5.36;72.85;100599.23;376618;107;1961946;-73
2020/12/20 01:21:29;;;;;;;28.60;14.45;;;;;;;5.36;73.11;100596.56;373427;108;1961907;-73
2020/12/20 01:22:35;;;;;;;26.74;12.66;;;;;;;5.41;73.10;100602.31;365546;109;1961952;-75
2020/12/20 01:23:44;;;;;;;28.86;13.77;;;;;;;5.41;73.23;100596.95;376877;107;1961949;-75
2020/12/20 01:24:49;;;;;;;27.82;13.77;;;;;;;5.46;73.15;100588.48;376778;106;1961975;-73
2020/12/20 01:25:58;;;;;;;26.43;12.97;;;;;;;5.49;73.07;100593.53;326585;106;2821917;-73
2020/12/20 01:27:04;;;;;;;22.96;11.50;;;;;;;5.54;72.82;100593.09;371351;108;1961973;-73
2020/12/20 01:28:09;;;;;;;26.32;12.34;;;;;;;5.50;72.67;100604.11;361487;110;1961969;-73
2020/12/20 01:29:16;;;;;;;22.17;11.16;;;;;;;5.51;72.75;100604.95;308747;110;2082575;-74
2020/12/20 01:30:23;;;;;;;24.22;11.29;;;;;;;5.53;72.72;100596.73;371839;108;1962972;-73
2020/12/20 01:31:28;;;;;;;21.45;11.06;;;;;;;5.50;72.21;100595.20;374555;108;1962023;-73
2020/12/20 01:32:41;;;;;;;24.29;11.51;;;;;;;5.50;72.46;100601.44;357252;107;1961905;-72
2020/12/20 01:33:46;;;;;;;23.09;10.90;;;;;;;5.48;72.54;100600.73;359799;108;1961938;-73
2020/12/20 01:34:52;;;;;;;21.59;10.27;;;;;;;5.46;72.54;100601.88;372188;107;1960901;-73
2020/12/20 01:35:57;;;;;;;23.04;11.74;;;;;;;5.46;72.54;100599.20;376950;106;1963928;-72
2020/12/20 01:37:03;;;;;;;24.67;11.21;;;;;;;5.44;72.46;100609.21;368459;109;1962045;-75
2020/12/20 01:38:11;;;;;;;20.87;10.87;;;;;;;5.44;72.74;100596.66;367285;109;1962996;-73
2020/12/20 01:39:17;;;;;;;25.62;11.36;;;;;;;5.47;72.78;100600.87;355761;107;1961941;-74
2020/12/20 01:40:25;;;;;;;24.15;11.13;;;;;;;5.49;72.60;100605.09;376602;106;1961935;-73
2020/12/20 01:41:31;;;;;;;22.26;9.96;;;;;;;5.51;72.54;100608.47;341035;107;2569973;-73
2020/12/20 01:42:36;;;;;;;20.05;10.48;;;;;;;5.48;72.42;100607.94;368251;107;1962805;-73
2020/12/20 01:43:45;;;;;;;24.76;11.24;;;;;;;5.48;72.28;100606.09;377622;107;1961965;-73
2020/12/20 01:44:51;;;;;;;20.81;11.12;;;;;;;5.44;72.44;100602.01;347248;107;1964986;-73
2020/12/20 01:45:57;;;;;;;25.72;10.47;;;;;;;5.44;72.14;100606.53;374577;107;1962039;-73
2020/12/20 01:47:04;;;;;;;22.91;10.86;;;;;;;5.37;72.22;100598.27;372126;108;1962024;-73
2020/12/20 01:48:12;;;;;;;20.85;10.78;;;;;;;5.36;72.59;100601.92;314185;110;2833038;-73
2020/12/20 01:49:19;;;;;;;22.47;10.61;;;;;;;5.38;72.73;100601.78;372739;108;1962971;-72
2020/12/20 01:50:28;;;;;;;21.98;10.93;;;;;;;5.41;72.69;100607.67;372347;108;1963052;-73
2020/12/20 01:51:34;;;;;;;24.07;10.06;;;;;;;5.42;72.53;100600.47;372572;108;1961985;-73
2020/12/20 01:52:44;;;;;;;18.17;9.41;;;;;;;5.42;72.28;100603.98;372573;108;1962906;-73
2020/12/20 01:53:51;;;;;;;23.87;10.27;;;;;;;5.37;72.40;100598.27;373408;108;1961952;-72
2020/12/20 01:55:00;;;;;;;21.55;10.51;;;;;;;5.37;72.44;100598.27;373771;108;1961968;-73
2020/12/20 01:56:08;;;;;;;24.01;11.97;;;;;;;5.37;72.59;100598.27;372438;108;1961939;-73
2020/12/20 01:57:15;;;;;;;25.54;10.94;;;;;;;5.39;72.63;100598.94;345593;108;1962043;-74
2020/12/20 01:58:37;;;;;;;31.10;12.78;;;;;;;5.40;72.67;100602.45;375517;107;1961821;-73
2020/12/20 01:59:46;;;;;;;26.39;10.77;;;;;;;5.37;72.60;100600.08;347117;107;2449250;-73
2020/12/20 02:00:53;;;;;;;23.66;11.73;;;;;;;5.36;72.77;100595.72;379286;107;1961948;-73
2020/12/20 02:02:17;;;;;;;32.24;13.12;;;;;;;5.37;72.92;100600.08;377337;107;1961933;-72
2020/12/20 02:03:25;;;;;;;33.58;11.82;;;;;;;5.39;72.76;100596.25;352815;107;2328063;-73
2020/12/20 02:04:31;;;;;;;29.84;11.17;;;;;;;5.42;72.82;100603.98;375208;107;1962944;-73
2020/12/20 02:05:37;;;;;;;33.12;12.02;;;;;;;5.39;72.65;100604.30;376694;106;1961821;-72
2020/12/20 02:06:44;;;;;;;29.91;11.14;;;;;;;5.39;72.88;100601.61;375527;107;1965005;-73
2020/12/20 02:07:49;;;;;;;34.78;12.25;;;;;;;5.40;72.74;100602.45;343977;108;2409056;-72
2020/12/20 02:08:55;;;;;;;31.30;11.70;;;;;;;5.37;72.78;100600.95;372196;107;1962033;-73
2020/12/20 02:10:02;;;;;;;26.11;11.24;;;;;;;5.35;72.84;100607.45;376514;107;1964911;-73
2020/12/20 02:11:13;;;;;;;29.75;12.65;;;;;;;5.34;73.01;100605.73;378768;106;1963985;-74
2020/12/20 02:12:23;;;;;;;33.06;12.11;;;;;;;5.33;73.07;100604.06;353657;106;1961970;-73
2020/12/20 02:13:30;;;;;;;35.37;12.76;;;;;;;5.31;72.87;100604.20;376340;107;1961957;-74
2020/12/20 02:14:37;;;;;;;30.88;12.92;;;;;;;5.29;73.15;100611.53;375354;107;1961882;-72
2020/12/20 02:15:44;;;;;;;26.69;11.78;;;;;;;5.31;73.05;100608.72;367313;107;2960003;-73
2020/12/20 02:16:51;;;;;;;29.43;12.19;;;;;;;5.28;72.99;100609.86;371059;107;1963011;-73
2020/12/20 02:17:56;;;;;;;30.09;12.60;;;;;;;5.31;73.54;100614.08;373289;106;1962007;-73
2020/12/20 02:19:04;;;;;;;26.17;12.39;;;;;;;5.33;73.24;100601.38;338831;107;2586962;-73
2020/12/20 02:20:11;;;;;;;35.93;14.77;;;;;;;5.34;73.35;100605.73;375598;107;1962018;-72
2020/12/20 02:21:34;;;;;;;28.77;12.41;;;;;;;5.41;73.37;100612.19;344850;109;2307022;-73
2020/12/20 02:22:41;;;;;;;33.24;12.93;;;;;;;5.45;73.21;100602.84;375572;107;1961985;-73
2020/12/20 02:23:50;;;;;;;30.18;12.43;;;;;;;5.48;73.17;100602.58;376396;107;1961922;-73
2020/12/20 02:24:58;;;;;;;27.53;13.11;;;;;;;5.50;73.06;100604.11;377216;107;1961943;-74
2020/12/20 02:26:05;;;;;;;27.73;13.11;;;;;;;5.50;72.80;100604.11;360827;107;1964275;-72
2020/12/20 02:27:13;;;;;;;26.81;11.99;;;;;;;5.53;72.75;100605.65;375701;107;1961995;-72
2020/12/20 02:28:20;;;;;;;27.29;11.64;;;;;;;5.56;72.76;100609.84;376142;107;1961004;-73
2020/12/20 02:29:29;;;;;;;33.18;11.54;;;;;;;5.57;72.88;100607.02;338193;107;2605025;-74
2020/12/20 02:30:36;;;;;;;28.97;13.09;;;;;;;5.57;72.31;100601.66;377370;107;1965321;-71
2020/12/20 02:31:44;;;;;;;29.25;12.57;;;;;;;5.57;72.56;100611.54;355881;107;2287972;-75
2020/12/20 02:32:50;;;;;;;27.04;12.04;;;;;;;5.60;72.73;100608.55;376027;107;1962955;-73
2020/12/20 02:33:56;;;;;;;22.59;10.48;;;;;;;5.61;72.54;100607.55;378249;107;1962039;-73
2020/12/20 02:35:03;;;;;;;26.92;12.35;;;;;;;5.63;72.48;100602.89;373449;106;1961924;-74
2020/12/20 02:36:11;;;;;;;28.43;12.96;;;;;;;5.66;72.39;100602.58;371005;107;1962009;-72
2020/12/20 02:37:19;;;;;;;22.94;11.43;;;;;;;5.67;72.34;100602.45;377228;106;1962979;-73
2020/12/20 02:38:34;;;;;;;26.53;12.25;;;;;;;5.71;72.15;100608.34;376915;107;1963930;-73
2020/12/20 02:39:48;;;;;;;23.62;11.96;;;;;;;5.69;72.12;100604.98;328948;107;2769006;-74
2020/12/20 02:40:55;;;;;;;21.75;10.86;;;;;;;5.70;72.11;100604.81;373195;107;1962010;-73
2020/12/20 02:42:01;;;;;;;20.99;10.19;;;;;;;5.72;72.06;100604.68;370695;107;1961873;-73
2020/12/20 02:43:08;;;;;;;26.43;11.73;;;;;;;5.71;72.07;100605.66;356245;107;2270680;-73
2020/12/20 02:44:14;;;;;;;23.52;12.69;;;;;;;5.72;71.91;100602.00;346147;107;1962017;-73
2020/12/20 02:45:21;;;;;;;20.83;10.19;;;;;;;5.73;71.81;100606.35;376464;107;1961958;-73
2020/12/20 02:46:30;;;;;;;21.57;10.82;;;;;;;5.72;71.66;100605.52;354504;107;1961892;-73
2020/12/20 02:47:40;;;;;;;19.24;10.04;;;;;;;5.75;71.79;100609.73;376454;106;1961997;-73
2020/12/20 02:48:46;;;;;;;19.62;9.44;;;;;;;5.75;71.73;100604.38;376151;107;1960693;-72
2020/12/20 02:49:52;;;;;;;21.40;9.92;;;;;;;5.74;71.59;100608.03;375528;107;1961959;-73
2020/12/20 02:50:59;;;;;;;23.64;10.87;;;;;;;5.73;71.59;100607.19;373409;106;1964002;-73
2020/12/20 02:52:05;;;;;;;20.39;10.49;;;;;;;5.72;71.58;100610.88;376765;107;1962936;-73
2020/12/20 02:53:10;;;;;;;25.68;12.07;;;;;;;5.75;71.82;100608.89;378210;106;1962897;-72
2020/12/20 02:54:16;;;;;;;25.18;10.84;;;;;;;5.75;71.52;100609.73;378038;107;1961931;-72
2020/12/20 02:55:23;;;;;;;24.53;10.51;;;;;;;5.75;71.56;100608.89;338816;107;2604969;-74
2020/12/20 02:56:44;;;;;;;21.23;11.36;;;;;;;5.72;71.48;100608.20;377037;106;1962045;-73
2020/12/20 02:57:52;;;;;;;23.13;9.81;;;;;;;5.70;71.43;100617.38;374569;106;1962036;-73
2020/12/20 02:58:59;;;;;;;24.33;9.31;;;;;;;5.65;71.40;100614.31;373362;106;1961956;-73
2020/12/20 03:00:05;;;;;;;23.67;9.48;;;;;;;5.62;71.56;100614.62;369727;108;1964011;-73
2020/12/20 03:01:11;;;;;;;21.69;9.64;;;;;;;5.59;71.71;100617.60;375779;107;1962052;-73
2020/12/20 03:02:17;;;;;;;28.28;9.46;;;;;;;5.56;71.70;100616.06;332605;107;2686007;-73
2020/12/20 03:03:25;;;;;;;25.08;10.16;;;;;;;5.50;71.77;100616.64;375223;107;1962982;-74
2020/12/20 03:04:32;;;;;;;21.89;9.79;;;;;;;5.44;71.79;100611.89;331217;107;2714003;-72
2020/12/20 03:05:49;;;;;;;24.34;9.59;;;;;;;5.42;72.17;100612.03;367776;107;1961963;-73
2020/12/20 03:06:55;;;;;;;21.34;10.01;;;;;;;5.39;72.16;100609.65;364957;110;1961965;-72
2020/12/20 03:08:02;;;;;;;26.65;9.53;;;;;;;5.38;72.27;100617.86;369321;108;1961025;-73
2020/12/20 03:09:07;;;;;;;23.97;9.33;;;;;;;5.37;72.34;100613.47;343214;107;1961946;-73
2020/12/20 03:10:17;;;;;;;27.81;9.71;;;;;;;5.35;72.35;100619.00;368053;109;1960755;-73
2020/12/20 03:11:24;;;;;;;25.61;9.16;;;;;;;5.34;72.45;100616.45;355027;109;1962013;-73
2020/12/20 03:12:29;;;;;;;24.97;9.79;;;;;;;5.33;72.56;100612.09;365390;108;1961975;-73
2020/12/20 03:13:35;;;;;;;21.27;8.67;;;;;;;5.32;72.51;100616.63;356725;111;1962047;-72
2020/12/20 03:14:41;;;;;;;29.32;10.23;;;;;;;5.33;72.56;100612.09;348858;114;1962005;-72
2020/12/20 03:15:47;;;;;;;29.38;9.75;;;;;;;5.33;72.66;100607.58;354442;111;2932983;-72
2020/12/20 03:16:54;;;;;;;28.72;9.96;;;;;;;5.36;72.46;100609.12;363442;110;1960757;-73
2020/12/20 03:18:00;;;;;;;22.88;9.63;;;;;;;5.35;72.42;100616.31;368258;110;1960821;-73
2020/12/20 03:19:06;;;;;;;20.24;9.27;;;;;;;5.39;72.61;100616.85;363722;111;1960873;-72
2020/12/20 03:20:12;;;;;;;28.15;10.18;;;;;;;5.43;72.59;100615.58;300686;110;2188692;-73
2020/12/20 03:21:21;;;;;;;25.51;9.93;;;;;;;5.42;72.34;100613.87;365576;110;1962131;-73
2020/12/20 03:22:44;;;;;;;22.32;9.57;;;;;;;5.41;72.41;100620.23;364940;110;1960802;-77
2020/12/20 03:23:52;;;;;;;25.63;9.71;;;;;;;5.37;72.53;100626.87;332490;110;2541889;-73
2020/12/20 03:25:03;;;;;;;31.97;9.47;;;;;;;5.34;72.54;100627.17;330680;111;1960914;-72
2020/12/20 03:26:10;;;;;;;25.04;9.85;;;;;;;5.33;72.53;100631.69;362892;110;1960963;-73
2020/12/20 03:27:27;;;;;;;23.03;10.64;;;;;;;5.31;72.70;100633.66;349381;110;1961940;-74
2020/12/20 03:28:37;;;;;;;28.34;9.96;;;;;;;5.32;72.86;100638.05;319786;110;1964000;-73
2020/12/20 03:30:01;;;;;;;25.79;11.10;;;;;;;5.34;72.71;100637.89;367024;110;1960872;-72
2020/12/20 03:31:26;;;;;;;26.42;10.33;;;;;;;5.35;72.87;100637.75;335035;108;2493031;-73
2020/12/20 03:32:41;;;;;;;25.14;11.09;;;;;;;5.39;72.78;100639.12;365266;109;1961098;-73
2020/12/20 03:34:00;;;;;;;23.40;9.94;;;;;;;5.40;72.60;100640.83;365721;109;1960711;-73
2020/12/20 03:35:14;;;;;;;30.92;10.67;;;;;;;5.42;72.61;100640.66;364854;110;1962984;-72
2020/12/20 03:36:23;;;;;;;27.37;10.23;;;;;;;5.39;72.60;100639.12;365880;110;1962026;-73
2020/12/20 03:37:29;;;;;;;25.25;11.58;;;;;;;5.40;72.49;100646.19;367490;110;1962979;-73
2020/12/20 03:38:37;;;;;;;23.13;10.53;;;;;;;5.39;72.73;100646.33;348607;110;1963952;-73
2020/12/20 03:39:42;;;;;;;27.45;10.14;;;;;;;5.41;72.82;100644.34;366438;110;1962006;-73
2020/12/20 03:40:49;;;;;;;26.56;10.20;;;;;;;5.39;72.79;100646.33;365775;110;1960994;-73
2020/12/20 03:41:57;;;;;;;27.14;10.31;;;;;;;5.33;72.53;100641.56;345010;110;2298400;-73
2020/12/20 03:43:03;;;;;;;23.44;11.17;;;;;;;5.25;72.95;100645.82;366688;110;1960969;-74
2020/12/20 03:44:12;;;;;;;21.33;10.61;;;;;;;5.29;73.24;100644.55;335616;109;2487918;-74
2020/12/20 03:45:19;;;;;;;24.45;10.52;;;;;;;5.32;73.09;100645.22;366235;110;1963049;-72
2020/12/20 03:46:26;;;;;;;30.92;10.21;;;;;;;5.32;73.13;100640.73;338019;110;1961938;-73
2020/12/20 03:47:46;;;;;;;24.89;10.56;;;;;;;5.34;73.10;100645.92;366897;110;1961928;-73
2020/12/20 03:48:52;;;;;;;31.04;11.27;;;;;;;5.36;72.97;100650.14;371816;106;1961978;-73
2020/12/20 03:50:00;;;;;;;28.22;9.23;;;;;;;5.34;72.76;100646.76;368749;109;1962004;-74
2020/12/20 03:51:06;;;;;;;28.40;9.83;;;;;;;5.34;72.94;100652.12;308832;109;2151457;-73
2020/12/20 03:52:12;;;;;;;25.17;9.11;;;;;;;5.32;72.94;100645.22;364431;110;1961011;-74
2020/12/20 03:53:30;;;;;;;22.83;10.71;;;;;;;5.32;73.05;100651.45;361384;109;1961952;-74
2020/12/20 03:54:40;;;;;;;26.10;11.48;;;;;;;5.31;73.23;100660.45;330757;109;2620845;-73
2020/12/20 03:55:47;;;;;;;30.33;11.41;;;;;;;5.32;73.03;100654.13;370341;109;1961857;-74
2020/12/20 03:56:54;;;;;;;26.34;9.67;;;;;;;5.34;73.14;100654.80;370716;109;1962192;-73
2020/12/20 03:58:00;;;;;;;32.12;11.57;;;;;;;5.35;73.06;100659.19;321316;106;2236898;-73
2020/12/20 03:59:06;;;;;;;32.09;9.70;;;;;;;5.34;72.92;100659.31;367294;107;1961732;-73
2020/12/20 04:00:13;;;;;;;25.38;10.84;;;;;;;5.29;72.84;100657.94;362741;109;1961891;-74
2020/12/20 04:01:22;;;;;;;24.15;10.96;;;;;;;5.28;73.14;100660.76;363468;109;1961002;-74
2020/12/20 04:02:29;;;;;;;26.91;10.56;;;;;;;5.30;73.40;100658.78;368165;107;1961019;-73
2020/12/20 04:03:35;;;;;;;25.18;10.38;;;;;;;5.32;73.31;100658.62;316457;109;2799023;-72
2020/12/20 04:04:41;;;;;;;21.87;11.42;;;;;;;5.34;73.20;100665.52;364001;109;1962904;-72
2020/12/20 04:05:46;;;;;;;26.36;11.09;;;;;;;5.36;73.26;100663.54;368216;108;1960643;-73
2020/12/20 04:06:53;;;;;;;23.24;10.55;;;;;;;5.37;73.19;100667.05;367392;109;1961985;-73
2020/12/20 04:07:59;;;;;;;23.19;9.91;;;;;;;5.41;73.25;100663.10;365668;109;1962025;-73
2020/12/20 04:09:05;;;;;;;26.06;10.39;;;;;;;5.42;72.93;100664.78;342023;107;2415103;-73
2020/12/20 04:10:19;;;;;;;23.43;10.86;;;;;;;5.40;72.79;100656.91;345156;117;1962991;-71
2020/12/20 04:11:25;;;;;;;25.03;9.11;;;;;;;5.41;73.08;100666.63;347977;107;1960659;-72
2020/12/20 04:12:31;;;;;;;25.58;9.56;;;;;;;5.42;72.81;100659.42;368032;107;1961985;-72
2020/12/20 04:13:37;;;;;;;20.98;10.42;;;;;;;5.45;72.90;100669.84;369198;107;1961985;-72
2020/12/20 04:14:43;;;;;;;21.48;10.48;;;;;;;5.45;72.75;100670.70;369647;107;1961986;-72
2020/12/20 04:15:48;;;;;;;24.08;11.18;;;;;;;5.47;72.80;100676.73;362221;109;1964964;-73
2020/12/20 04:16:54;;;;;;;20.00;9.59;;;;;;;5.49;72.77;100674.77;309677;108;2104313;-73
2020/12/20 04:18:01;;;;;;;23.15;11.38;;;;;;;5.52;72.83;100673.63;369275;107;1962049;-73
2020/12/20 04:19:06;;;;;;;21.36;12.52;;;;;;;5.57;72.81;100681.23;368464;108;1962013;-73
2020/12/20 04:20:14;;;;;;;26.63;11.22;;;;;;;5.61;72.59;100678.11;344155;107;2377965;-73
2020/12/20 04:21:22;;;;;;;23.49;11.13;;;;;;;5.59;72.30;100684.61;369006;109;1964915;-73
2020/12/20 04:22:27;;;;;;;26.66;13.29;;;;;;;5.60;72.45;100686.28;357565;113;1963304;-74
2020/12/20 04:23:34;;;;;;;23.91;11.49;;;;;;;5.62;72.54;100690.50;323838;112;2338957;-74
2020/12/20 04:24:45;;;;;;;22.80;9.41;;;;;;;5.64;72.39;100687.69;338916;107;1960915;-74
2020/12/20 04:25:51;;;;;;;19.87;9.76;;;;;;;5.64;72.27;100693.05;367333;107;1961961;-74
2020/12/20 04:27:04;;;;;;;21.69;8.98;;;;;;;5.62;72.31;100689.67;326730;107;1977705;-73
2020/12/20 04:28:11;;;;;;;23.22;9.32;;;;;;;5.61;72.24;100688.83;366951;107;1961973;-73
2020/12/20 04:29:18;;;;;;;20.91;8.42;;;;;;;5.61;71.98;100691.51;367838;107;1962033;-72
2020/12/20 04:30:27;;;;;;;19.76;9.48;;;;;;;5.60;72.11;100691.64;368297;109;1961920;-72
2020/12/20 04:31:34;;;;;;;21.16;9.96;;;;;;;5.55;72.02;100691.24;321961;109;1966971;-74
2020/12/20 04:32:40;;;;;;;17.97;8.92;;;;;;;5.56;72.18;100695.59;352276;109;1962044;-73
2020/12/20 04:33:46;;;;;;;18.80;9.65;;;;;;;5.54;72.35;100698.45;369379;107;1962076;-74
2020/12/20 04:34:54;;;;;;;19.78;9.21;;;;;;;5.55;72.32;100705.48;343295;107;2359883;-73
2020/12/20 04:35:59;;;;;;;18.38;9.36;;;;;;;5.56;72.32;100703.64;342344;107;1962001;-73
2020/12/20 04:37:05;;;;;;;18.36;9.38;;;;;;;5.57;72.27;100699.98;367641;108;1964031;-73
2020/12/20 04:38:13;;;;;;;18.07;8.46;;;;;;;5.57;72.37;100697.31;367064;107;1961916;-73
2020/12/20 04:39:20;;;;;;;18.39;8.27;;;;;;;5.58;72.02;100699.81;368057;107;1963008;-72
2020/12/20 04:40:38;;;;;;;16.88;8.75;;;;;;;5.56;71.95;100698.28;366930;109;1962000;-73
2020/12/20 04:41:44;;;;;;;17.20;8.79;;;;;;;5.54;72.11;100700.28;337422;108;2413951;-74
2020/12/20 04:42:49;;;;;;;16.38;8.31;;;;;;;5.54;72.10;100697.61;347745;110;1962046;-74
2020/12/20 04:43:54;;;;;;;16.63;8.41;;;;;;;5.55;72.08;100702.80;359378;110;1965977;-73
2020/12/20 04:45:00;;;;;;;15.12;7.77;;;;;;;5.57;72.17;100703.50;354904;113;1962018;-74
2020/12/20 04:46:10;;;;;;;16.45;8.71;;;;;;;5.58;72.13;100710.54;333028;110;2442081;-73
2020/12/20 04:47:19;;;;;;;18.09;8.59;;;;;;;5.60;72.07;100710.41;344520;112;2952012;-73
2020/12/20 04:48:30;;;;;;;17.43;9.44;;;;;;;5.61;72.15;100709.41;359943;111;1960739;-73
2020/12/20 04:49:40;;;;;;;15.38;8.13;;;;;;;5.63;72.04;100705.58;359397;110;1964944;-74
2020/12/20 04:50:49;;;;;;;18.70;10.14;;;;;;;5.66;72.05;100707.13;319979;111;2607002;-73
2020/12/20 04:51:59;;;;;;;18.51;9.27;;;;;;;5.66;71.83;100701.77;360289;110;1970035;-73
2020/12/20 04:53:06;;;;;;;18.10;9.11;;;;;;;5.68;71.93;100703.30;359775;110;1963820;-73
2020/12/20 04:54:15;;;;;;;19.29;9.23;;;;;;;5.71;71.90;100704.84;297951;112;2247422;-73
2020/12/20 04:55:22;;;;;;;17.55;9.31;;;;;;;5.64;71.78;100687.69;359650;111;1960877;-73
2020/12/20 04:56:36;;;;;;;19.89;9.86;;;;;;;5.66;71.22;100699.08;319866;114;1961951;-72
2020/12/20 04:57:43;;;;;;;18.13;8.98;;;;;;;5.69;71.62;100696.12;319812;111;1961889;-73
2020/12/20 04:58:50;;;;;;;17.06;8.62;;;;;;;5.70;71.62;100703.16;350558;113;1962000;-72
2020/12/20 04:59:56;;;;;;;20.03;8.66;;;;;;;5.67;71.54;100701.63;352186;113;1961960;-74
2020/12/20 05:01:05;;;;;;;17.67;9.23;;;;;;;5.67;71.57;100701.63;360291;110;1961957;-73
2020/12/20 05:02:11;;;;;;;17.42;8.79;;;;;;;5.68;71.61;100697.94;357997;112;1964093;-73
2020/12/20 05:03:17;;;;;;;18.42;8.79;;;;;;;5.68;71.53;100700.63;358353;111;1961934;-73
2020/12/20 05:04:24;;;;;;;16.12;8.86;;;;;;;5.69;71.53;100705.01;357495;111;1961987;-73
2020/12/20 05:05:30;;;;;;;18.43;9.83;;;;;;;5.70;71.57;100703.16;359669;111;1964008;-73